Terminal Aerodrome Forecast
Issued by NWS

Home | Current Version | Previous Version | Text Only | Print | Product List | Glossary On
Versions: 1 2 3 4 5 6 7 8 9 10 11 12 13 14 15 16 17 18 19 20 21 22 23 24
000
FTUS43 KDLH 251700
TAFHYR
TAF
KHYR 251720Z 2518/2618 24004KT P6SM BKN014
     FM252000 VRB03KT P6SM BKN040
     FM260300 18002KT P6SM BKN018 OVC035
     FM260700 00000KT P6SM -SN SCT012 OVC023
     FM261400 VRB03KT 5SM -SN BR BKN022 OVC050=

USA.gov is the U.S. government's official web portal to all federal, state and local government web resources and services.